Terminal Aerodrome Forecast
Issued by NWS

Home | Current Version | Previous Version | Text Only | Print | Product List | Glossary On
Versions: 1 2 3 4 5 6 7 8 9 10 11 12 13 14 15
509
FTUS43 KEAX 292320
TAFSTJ
TAF
KSTJ 292320Z 3000/3024 05015KT 5SM -RA BR OVC009
     FM300600 05014KT 4SM BR VCSH OVC005
     FM301100 08015KT 2SM -RA BR OVC002
     FM301430 17016KT 6SM BR SCT008 OVC020=

USA.gov is the U.S. government's official web portal to all federal, state and local government web resources and services.